Time;durP1;ratioP1;P1;durP2;ratioP2;P2;SDS_P1;SDS_P2;PMS_P1;PMS_P2;Temp;Humidity;BMP_temperature;BMP_pressure;BME280_temperature;BME280_humidity;BME280_pressure;Samples;Min_cycle;Max_cycle;Signal;HPM_P1;HPM_P2
2023/05/18 00:00:00;;;;;;;8.25;3.20;;;;;;;6.00;100.00;101836.88;686802;28;1479;-59
2023/05/18 00:00:22;;;;;;;7.85;3.00;;;;;;;6.05;100.00;101838.78;688250;28;821;-59
2023/05/18 00:00:44;;;;;;;6.97;3.03;;;;;;;6.04;100.00;101841.34;687141;28;4535;-59
2023/05/18 00:01:04;;;;;;;6.25;2.75;;;;;;;6.04;100.00;101834.41;687041;28;889;-59
2023/05/18 00:01:25;;;;;;;6.50;2.80;;;;;;;6.02;100.00;101832.59;687986;28;1016;-59
2023/05/18 00:01:45;;;;;;;6.97;2.97;;;;;;;5.99;100.00;101833.38;686367;28;1529;-58
2023/05/18 00:02:06;;;;;;;7.67;2.97;;;;;;;5.98;100.00;101842.00;687566;28;1261;-58
2023/05/18 00:02:26;;;;;;;9.60;3.00;;;;;;;5.96;100.00;101839.31;688026;28;909;-58
2023/05/18 00:02:47;;;;;;;7.13;2.80;;;;;;;5.96;100.00;101836.72;686426;28;1487;-59
2023/05/18 00:03:07;;;;;;;6.20;2.72;;;;;;;5.98;100.00;101839.41;687433;28;1004;-59
2023/05/18 00:03:28;;;;;;;6.90;3.00;;;;;;;5.96;100.00;101841.91;687874;28;854;-59
2023/05/18 00:03:53;;;;;;;6.55;2.80;;;;;;;5.95;100.00;101836.66;685343;28;4523;-59
2023/05/18 00:04:15;;;;;;;6.60;2.83;;;;;;;5.95;100.00;101834.06;687859;28;1993;-59
2023/05/18 00:04:36;;;;;;;5.40;2.63;;;;;;;5.97;100.00;101835.94;687560;28;995;-59
2023/05/18 00:05:00;;;;;;;6.97;2.80;;;;;;;5.95;100.00;101841.88;685843;28;1613;-59
2023/05/18 00:05:21;;;;;;;7.07;2.90;;;;;;;5.91;100.00;101830.50;687534;28;1322;-59
2023/05/18 00:05:42;;;;;;;7.07;2.95;;;;;;;5.92;100.00;101841.78;684235;28;884;-58
2023/05/18 00:06:05;;;;;;;6.72;2.85;;;;;;;5.92;100.00;101831.38;683748;28;1599;-59
2023/05/18 00:06:26;;;;;;;8.20;3.20;;;;;;;5.90;100.00;101833.06;682500;29;948;-58
2023/05/18 00:06:47;;;;;;;8.57;3.20;;;;;;;5.88;100.00;101838.19;680246;28;4519;-58
2023/05/18 00:07:08;;;;;;;7.30;3.07;;;;;;;5.88;100.00;101837.31;682256;29;1237;-60
2023/05/18 00:07:32;;;;;;;7.78;3.10;;;;;;;5.92;100.00;101833.97;681864;29;952;-58
2023/05/18 00:07:53;;;;;;;6.80;2.90;;;;;;;5.92;100.00;101833.97;681893;28;1565;-58
2023/05/18 00:08:13;;;;;;;7.05;3.10;;;;;;;5.91;100.00;101837.41;686463;28;1013;-58
2023/05/18 00:08:33;;;;;;;6.60;3.30;;;;;;;5.90;100.00;101830.47;685188;28;1332;-59
2023/05/18 00:08:54;;;;;;;7.67;2.90;;;;;;;5.88;100.00;101838.19;683616;28;1600;-59
2023/05/18 00:09:14;;;;;;;6.82;2.90;;;;;;;5.87;100.00;101836.44;683128;28;953;-59
2023/05/18 00:09:35;;;;;;;7.40;3.00;;;;;;;5.88;100.00;101835.59;683193;28;913;-58
2023/05/18 00:09:56;;;;;;;6.30;2.90;;;;;;;5.87;100.00;101828.66;681238;28;4533;-59
2023/05/18 00:10:16;;;;;;;5.70;2.70;;;;;;;5.88;100.00;101829.53;683111;28;1381;-59
2023/05/18 00:10:37;;;;;;;7.30;3.00;;;;;;;5.88;100.00;101826.94;685618;28;972;-58
2023/05/18 00:10:57;;;;;;;6.57;2.83;;;;;;;5.86;100.00;101837.25;684421;28;1569;-58
2023/05/18 00:11:17;;;;;;;8.13;2.97;;;;;;;5.86;100.00;101833.78;687851;28;905;-59
2023/05/18 00:11:39;;;;;;;7.13;3.07;;;;;;;5.86;100.00;101831.19;687284;28;1080;-58
2023/05/18 00:12:01;;;;;;;8.43;3.13;;;;;;;5.86;100.00;101826.00;684935;28;1577;-58
2023/05/18 00:12:21;;;;;;;7.75;3.05;;;;;;;5.86;100.00;101828.59;687941;28;976;-58
2023/05/18 00:12:42;;;;;;;6.97;2.97;;;;;;;5.86;100.00;101836.38;686574;28;4617;-59
2023/05/18 00:13:04;;;;;;;7.18;3.22;;;;;;;5.86;100.00;101831.19;686389;28;1530;-58
2023/05/18 00:13:24;;;;;;;7.35;3.40;;;;;;;5.85;100.00;101826.84;687380;28;1112;-58
2023/05/18 00:13:44;;;;;;;7.63;3.03;;;;;;;5.84;100.00;101827.66;686377;28;1565;-58
2023/05/18 00:14:06;;;;;;;7.27;3.33;;;;;;;5.84;100.00;101830.25;687525;28;913;-58
2023/05/18 00:14:27;;;;;;;6.38;3.08;;;;;;;5.83;100.00;101831.97;687540;28;964;-58
2023/05/18 00:14:47;;;;;;;7.45;3.00;;;;;;;5.83;100.00;101831.06;683658;28;1505;-59
2023/05/18 00:15:08;;;;;;;7.33;2.77;;;;;;;5.76;100.00;101825.69;684761;28;1244;-58
2023/05/18 00:15:29;;;;;;;7.72;3.08;;;;;;;5.76;100.00;101828.28;684996;28;885;-59
2023/05/18 00:15:49;;;;;;;7.83;2.93;;;;;;;5.83;100.00;101826.78;683123;28;4563;-58
2023/05/18 00:16:11;;;;;;;7.90;3.25;;;;;;;5.84;100.00;101822.47;684959;28;991;-59
2023/05/18 00:16:31;;;;;;;5.97;2.80;;;;;;;5.81;100.00;101828.44;684678;28;3482;-58
2023/05/18 00:16:52;;;;;;;5.53;2.80;;;;;;;5.74;100.00;101822.16;687478;28;2093;-59
2023/05/18 00:17:13;;;;;;;8.20;3.05;;;;;;;5.72;100.00;101829.00;688474;28;830;-58
2023/05/18 00:17:33;;;;;;;7.05;2.95;;;;;;;5.72;100.00;101829.00;688773;28;936;-58
2023/05/18 00:17:55;;;;;;;6.70;3.00;;;;;;;5.72;100.00;101829.00;684109;28;1607;-58
2023/05/18 00:18:16;;;;;;;6.68;3.47;;;;;;;5.72;100.00;101828.09;685814;28;1279;-58
2023/05/18 00:18:36;;;;;;;6.77;3.00;;;;;;;5.71;100.00;101827.25;684794;28;988;-59
2023/05/18 00:18:57;;;;;;;5.27;2.87;;;;;;;5.72;100.00;101828.09;685775;28;4779;-58
2023/05/18 00:19:19;;;;;;;6.85;2.85;;;;;;;5.71;100.00;101822.06;687823;28;842;-59
2023/05/18 00:19:40;;;;;;;6.45;2.83;;;;;;;5.69;100.00;101823.72;687343;28;874;-58
2023/05/18 00:20:00;;;;;;;7.78;2.90;;;;;;;5.68;100.00;101823.69;688851;28;1595;-59
2023/05/18 00:20:21;;;;;;;5.90;3.20;;;;;;;5.66;100.00;101823.59;690594;28;1047;-58
2023/05/18 00:20:42;;;;;;;5.63;2.75;;;;;;;5.67;100.00;101829.69;690434;28;846;-58
2023/05/18 00:21:03;;;;;;;6.95;2.90;;;;;;;5.66;100.00;101821.00;688946;28;1445;-58
2023/05/18 00:21:29;;;;;;;6.80;2.97;;;;;;;5.68;100.00;101832.34;690437;28;1298;-58
2023/05/18 00:21:51;;;;;;;7.35;3.30;;;;;;;5.67;100.00;101830.56;686679;28;5764;-58
2023/05/18 00:22:16;;;;;;;7.53;3.30;;;;;;;5.67;100.00;101825.38;687209;28;1210;-58
2023/05/18 00:22:41;;;;;;;5.57;2.85;;;;;;;5.67;100.00;101825.38;687440;28;850;-58
2023/05/18 00:23:01;;;;;;;8.10;3.08;;;;;;;5.65;100.00;101831.34;686295;28;1143;-58
2023/05/18 00:23:23;;;;;;;7.33;3.00;;;;;;;5.65;100.00;101829.63;688067;28;932;-59
2023/05/18 00:23:48;;;;;;;6.82;3.05;;;;;;;5.64;100.00;101825.28;686201;28;1501;-59
2023/05/18 00:24:12;;;;;;;6.86;3.16;;;;;;;5.60;100.00;101828.59;687450;28;1914;-59
2023/05/18 00:24:32;;;;;;;6.18;2.85;;;;;;;5.60;100.00;101826.88;687167;28;1035;-58
2023/05/18 00:24:52;;;;;;;5.60;2.88;;;;;;;5.61;100.00;101830.38;687470;28;4307;-58
2023/05/18 00:25:13;;;;;;;8.53;3.10;;;;;;;5.61;100.00;101833.81;690225;28;977;-59
2023/05/18 00:25:33;;;;;;;8.70;3.22;;;;;;;5.61;100.00;101831.22;690502;28;999;-58
2023/05/18 00:25:57;;;;;;;9.23;3.33;;;;;;;5.63;100.00;101831.28;685727;28;1579;-59
2023/05/18 00:26:17;;;;;;;6.43;2.90;;;;;;;5.64;100.00;101827.88;687531;28;1264;-58
2023/05/18 00:26:46;;;;;;;6.03;3.05;;;;;;;5.61;100.00;101826.03;687778;28;1730;-59
2023/05/18 00:27:07;;;;;;;6.13;2.90;;;;;;;5.59;100.00;101826.81;687642;28;1045;-57
2023/05/18 00:27:27;;;;;;;7.43;2.90;;;;;;;5.59;100.00;101827.72;687757;28;839;-58
2023/05/18 00:27:48;;;;;;;10.00;3.23;;;;;;;5.62;100.00;101834.69;682958;28;4511;-58
2023/05/18 00:28:11;;;;;;;8.02;3.05;;;;;;;5.61;100.00;101832.97;684372;28;1515;-59
2023/05/18 00:28:31;;;;;;;5.95;2.75;;;;;;;5.65;100.00;101824.44;685132;28;980;-58
2023/05/18 00:28:52;;;;;;;5.80;2.88;;;;;;;5.66;100.00;101823.59;683303;28;1444;-58
2023/05/18 00:29:12;;;;;;;6.73;2.90;;;;;;;5.64;100.00;101827.88;684957;28;1349;-59
2023/05/18 00:29:32;;;;;;;7.88;3.00;;;;;;;5.65;100.00;101823.56;685505;28;976;-58
2023/05/18 00:29:53;;;;;;;7.83;3.00;;;;;;;5.65;100.00;101827.03;686822;28;1600;-58
2023/05/18 00:30:13;;;;;;;6.30;2.90;;;;;;;5.66;100.00;101823.59;690035;28;773;-58
2023/05/18 00:30:34;;;;;;;8.50;3.00;;;;;;;5.61;100.00;101828.63;687164;28;1028;-58
2023/05/18 00:30:55;;;;;;;9.27;3.20;;;;;;;5.62;100.00;101825.22;685493;28;4527;-58
2023/05/18 00:31:18;;;;;;;6.68;3.03;;;;;;;5.63;100.00;101827.00;686623;28;1435;-58
2023/05/18 00:31:38;;;;;;;6.78;2.92;;;;;;;5.62;100.00;101826.91;685093;28;1063;-58
2023/05/18 00:32:00;;;;;;;6.30;2.60;;;;;;;5.62;100.00;101824.31;684376;28;1481;-56
2023/05/18 00:32:20;;;;;;;5.60;2.90;;;;;;;5.61;100.00;101822.59;685318;28;1274;-58
2023/05/18 00:32:41;;;;;;;5.70;2.70;;;;;;;5.60;100.00;101828.59;683753;28;1399;-58
2023/05/18 00:33:01;;;;;;;5.87;2.60;;;;;;;5.61;100.00;101830.38;683802;28;1507;-59
2023/05/18 00:33:22;;;;;;;7.97;2.93;;;;;;;5.56;100.00;101826.72;683037;28;1152;-58
2023/05/18 00:33:44;;;;;;;6.97;3.20;;;;;;;5.53;100.00;101826.63;685360;28;4393;-58
2023/05/18 00:34:06;;;;;;;7.68;3.15;;;;;;;5.54;100.00;101830.97;684997;28;900;-59
2023/05/18 00:34:27;;;;;;;8.48;3.47;;;;;;;5.55;100.00;101830.13;682824;28;1381;-58
2023/05/18 00:34:47;;;;;;;8.83;3.40;;;;;;;5.54;100.00;101831.84;685292;28;1682;-59
2023/05/18 00:35:08;;;;;;;7.57;3.17;;;;;;;5.53;100.00;101832.69;686711;28;1009;-58
2023/05/18 00:35:28;;;;;;;8.37;3.40;;;;;;;5.51;100.00;101834.34;684934;28;1024;-58
2023/05/18 00:35:49;;;;;;;7.40;3.17;;;;;;;5.52;100.00;101825.72;683783;28;1205;-59
2023/05/18 00:36:10;;;;;;;7.35;2.90;;;;;;;5.52;100.00;101828.31;682304;28;1435;-58
2023/05/18 00:36:30;;;;;;;5.13;2.67;;;;;;;5.53;100.00;101830.09;681547;29;929;-59
2023/05/18 00:36:51;;;;;;;7.05;2.80;;;;;;;5.54;100.00;101837.03;678828;29;4651;-59
2023/05/18 00:37:11;;;;;;;5.90;3.00;;;;;;;5.54;100.00;101829.25;679303;29;1030;-58
2023/05/18 00:37:31;;;;;;;5.50;3.07;;;;;;;5.55;100.00;101833.63;679516;29;1293;-59
2023/05/18 00:37:52;;;;;;;5.68;2.80;;;;;;;5.52;100.00;101835.22;680859;28;1432;-58
2023/05/18 00:38:15;;;;;;;7.13;3.00;;;;;;;5.52;100.00;101830.03;682255;28;877;-59
2023/05/18 00:38:36;;;;;;;6.13;2.88;;;;;;;5.51;100.00;101830.84;683002;28;1819;-58
2023/05/18 00:38:57;;;;;;;7.03;3.00;;;;;;;5.50;100.00;101826.50;683116;28;5105;-59
2023/05/18 00:39:18;;;;;;;6.80;2.90;;;;;;;5.50;100.00;101829.09;684753;28;1184;-58
2023/05/18 00:39:38;;;;;;;6.63;3.10;;;;;;;5.48;100.00;101825.56;684453;28;4558;-58
2023/05/18 00:39:59;;;;;;;7.05;3.33;;;;;;;5.50;100.00;101829.09;683504;28;1521;-59
2023/05/18 00:40:21;;;;;;;7.20;3.13;;;;;;;5.50;100.00;101837.78;684864;28;1330;-58
2023/05/18 00:40:42;;;;;;;6.32;3.25;;;;;;;5.52;100.00;101827.44;682896;28;1052;-58
2023/05/18 00:41:02;;;;;;;7.50;3.20;;;;;;;5.53;100.00;101826.63;684858;28;1486;-58
2023/05/18 00:41:25;;;;;;;7.38;3.30;;;;;;;5.52;100.00;101832.63;686726;28;739;-59
2023/05/18 00:41:45;;;;;;;6.80;3.03;;;;;;;5.49;100.00;101827.34;681864;28;2089;-58
2023/05/18 00:42:06;;;;;;;8.30;3.30;;;;;;;5.50;100.00;101826.50;685465;28;1036;-58
2023/05/18 00:42:29;;;;;;;7.50;3.38;;;;;;;5.51;100.00;101829.16;689575;28;1057;-58
2023/05/18 00:42:49;;;;;;;5.82;3.20;;;;;;;5.48;100.00;101823.84;689775;28;4295;-58
2023/05/18 00:43:10;;;;;;;4.77;2.67;;;;;;;5.45;100.00;101835.03;685170;28;1264;-58
2023/05/18 00:43:30;;;;;;;7.65;3.10;;;;;;;5.44;100.00;101828.06;684790;28;1358;-58
2023/05/18 00:43:51;;;;;;;8.30;3.40;;;;;;;5.44;100.00;101828.06;682024;28;1467;-58
2023/05/18 00:44:12;;;;;;;6.38;3.05;;;;;;;5.44;100.00;101828.06;684029;28;1972;-58
2023/05/18 00:44:32;;;;;;;7.30;3.07;;;;;;;5.44;100.00;101832.34;682910;28;1228;-58
2023/05/18 00:44:53;;;;;;;8.05;3.17;;;;;;;5.45;100.00;101828.94;681034;28;1534;-59
2023/05/18 00:45:17;;;;;;;5.70;3.10;;;;;;;5.47;100.00;101827.28;683297;28;858;-58
2023/05/18 00:45:37;;;;;;;6.78;2.90;;;;;;;5.46;100.00;101826.41;686759;28;4514;-58
2023/05/18 00:45:58;;;;;;;7.28;3.08;;;;;;;5.44;100.00;101828.06;683310;28;1539;-58
2023/05/18 00:46:21;;;;;;;6.78;3.10;;;;;;;5.42;100.00;101826.25;681324;29;1603;-59
2023/05/18 00:46:43;;;;;;;7.53;2.85;;;;;;;5.41;100.00;101833.16;679791;29;921;-59
2023/05/18 00:47:04;;;;;;;7.07;3.00;;;;;;;5.40;100.00;101831.38;678307;29;1655;-58
2023/05/18 00:47:26;;;;;;;5.20;3.00;;;;;;;5.36;100.00;101823.41;680896;29;866;-58
2023/05/18 00:47:47;;;;;;;9.73;3.25;;;;;;;5.38;100.00;101834.75;677314;28;1538;-59
2023/05/18 00:48:07;;;;;;;8.93;3.03;;;;;;;5.35;100.00;101827.72;680398;29;1323;-58
2023/05/18 00:48:28;;;;;;;7.30;2.90;;;;;;;5.32;100.00;101832.81;682351;29;803;-58
2023/05/18 00:48:52;;;;;;;6.35;2.85;;;;;;;5.34;100.00;101830.28;680149;28;4526;-58
2023/05/18 00:49:13;;;;;;;6.88;3.10;;;;;;;5.35;100.00;101827.72;681606;29;1319;-58
2023/05/18 00:49:33;;;;;;;6.50;3.20;;;;;;;5.34;100.00;101825.09;684079;28;1334;-58
2023/05/18 00:49:53;;;;;;;8.07;3.03;;;;;;;5.37;100.00;101830.38;685783;28;963;-58
2023/05/18 00:50:14;;;;;;;6.65;3.00;;;;;;;5.36;100.00;101829.50;685079;28;1252;-58
2023/05/18 00:50:35;;;;;;;6.83;3.20;;;;;;;5.37;100.00;101832.97;682756;28;1234;-58
2023/05/18 00:50:55;;;;;;;7.38;3.05;;;;;;;5.35;100.00;101832.91;684374;28;1729;-58
2023/05/18 00:51:18;;;;;;;6.43;3.20;;;;;;;5.30;100.00;101837.06;683986;28;1041;-59
2023/05/18 00:51:39;;;;;;;6.82;3.20;;;;;;;5.29;100.00;101832.72;680496;28;4519;-58
2023/05/18 00:52:02;;;;;;;6.50;3.10;;;;;;;5.28;100.00;101826.63;682197;28;1526;-58
2023/05/18 00:52:23;;;;;;;8.07;3.10;;;;;;;5.29;100.00;101833.59;682418;28;1169;-59
2023/05/18 00:52:45;;;;;;;7.67;2.90;;;;;;;5.31;100.00;101832.75;683312;28;826;-58
2023/05/18 00:53:05;;;;;;;8.07;3.63;;;;;;;5.28;100.00;101837.00;683033;28;969;-57
2023/05/18 00:53:26;;;;;;;7.30;3.23;;;;;;;5.26;100.00;101832.59;685085;28;1465;-58
2023/05/18 00:53:46;;;;;;;9.53;3.10;;;;;;;5.26;100.00;101830.00;681163;28;1586;-58
2023/05/18 00:54:09;;;;;;;8.93;3.22;;;;;;;5.28;100.00;101834.41;683577;28;1328;-58
2023/05/18 00:54:31;;;;;;;6.97;3.05;;;;;;;5.31;100.00;101830.19;686091;28;953;-58
2023/05/18 00:54:52;;;;;;;6.70;3.05;;;;;;;5.33;100.00;101831.09;683094;28;4607;-58
2023/05/18 00:55:13;;;;;;;6.13;3.08;;;;;;;5.33;100.00;101834.59;681264;29;917;-59
2023/05/18 00:55:33;;;;;;;6.60;3.00;;;;;;;5.33;100.00;101832.00;680570;28;1265;-58
2023/05/18 00:55:55;;;;;;;7.15;3.15;;;;;;;5.32;100.00;101832.81;682545;28;1525;-58
2023/05/18 00:56:15;;;;;;;7.13;3.40;;;;;;;5.29;100.00;101831.00;682293;28;937;-58
2023/05/18 00:56:40;;;;;;;6.85;3.13;;;;;;;5.29;100.00;101828.41;681637;28;1103;-58
2023/05/18 00:57:01;;;;;;;6.10;2.70;;;;;;;5.29;100.00;101832.72;682252;28;1473;-58
2023/05/18 00:57:21;;;;;;;8.47;3.17;;;;;;;5.29;100.00;101827.53;683315;28;1184;-57
2023/05/18 00:57:43;;;;;;;8.55;3.20;;;;;;;5.28;100.00;101828.34;681875;28;4408;-58
2023/05/18 00:58:04;;;;;;;7.82;3.22;;;;;;;5.29;100.00;101832.72;680807;28;1697;-58
2023/05/18 00:58:25;;;;;;;8.13;3.30;;;;;;;5.31;100.00;101830.19;683073;28;945;-58
2023/05/18 00:58:46;;;;;;;7.43;3.20;;;;;;;5.29;100.00;101832.72;680884;28;1764;-58
2023/05/18 00:59:09;;;;;;;8.88;2.90;;;;;;;5.29;100.00;101827.53;681743;29;851;-57
2023/05/18 00:59:29;;;;;;;6.40;3.00;;;;;;;5.28;100.00;101830.94;681746;28;1229;-58
2023/05/18 00:59:50;;;;;;;7.10;2.90;;;;;;;5.24;100.00;101827.34;682928;28;1118;-58
2023/05/18 01:00:12;;;;;;;7.65;3.05;;;;;;;5.23;100.00;101828.19;684095;28;1316;-58
2023/05/18 01:00:36;;;;;;;8.00;3.10;;;;;;;5.23;100.00;101828.19;686761;28;962;-58
2023/05/18 01:00:56;;;;;;;6.22;3.00;;;;;;;5.22;100.00;101828.13;689721;28;4532;-58
2023/05/18 01:01:18;;;;;;;6.93;3.00;;;;;;;5.22;100.00;101835.88;690129;28;1067;-58
2023/05/18 01:01:42;;;;;;;7.55;3.10;;;;;;;5.22;100.00;101830.72;686800;28;1395;-58
2023/05/18 01:02:02;;;;;;;7.25;3.28;;;;;;;5.22;100.00;101826.44;685763;28;1818;-58
2023/05/18 01:02:23;;;;;;;6.45;3.03;;;;;;;5.24;100.00;101829.06;687888;28;1402;-58
2023/05/18 01:02:44;;;;;;;7.97;3.03;;;;;;;5.25;100.00;101833.44;691100;28;1505;-58
2023/05/18 01:03:04;;;;;;;7.88;3.30;;;;;;;5.22;100.00;101828.13;689242;28;1434;-58
2023/05/18 01:03:28;;;;;;;8.23;3.53;;;;;;;5.22;100.00;101833.28;688720;28;1632;-58
2023/05/18 01:03:55;;;;;;;7.43;3.50;;;;;;;5.21;100.00;101828.97;685053;28;4300;-58
2023/05/18 01:04:15;;;;;;;6.53;3.05;;;;;;;5.18;100.00;101823.66;687609;28;1922;-59
2023/05/18 01:04:36;;;;;;;7.47;3.00;;;;;;;5.18;100.00;101839.19;686612;28;1012;-58
2023/05/18 01:04:59;;;;;;;7.65;3.20;;;;;;;5.17;100.00;101825.38;686669;28;1581;-58
2023/05/18 01:05:21;;;;;;;9.13;3.45;;;;;;;5.20;100.00;101825.47;690701;28;921;-58
2023/05/18 01:05:41;;;;;;;6.53;3.10;;;;;;;5.19;100.00;101831.50;690904;28;936;-58
2023/05/18 01:06:04;;;;;;;6.50;2.90;;;;;;;5.18;100.00;101834.00;689020;28;1699;-57
2023/05/18 01:06:25;;;;;;;7.63;3.28;;;;;;;5.16;100.00;101836.56;691713;28;818;-57
2023/05/18 01:06:46;;;;;;;6.25;3.00;;;;;;;5.20;100.00;101833.25;688715;28;4525;-57
2023/05/18 01:07:06;;;;;;;6.93;2.90;;;;;;;5.23;100.00;101835.06;690748;28;819;-58
2023/05/18 01:07:27;;;;;;;7.63;3.38;;;;;;;5.23;100.00;101829.88;690303;28;916;-57
2023/05/18 01:07:49;;;;;;;6.60;3.43;;;;;;;5.18;100.00;101827.13;688117;28;1580;-57
2023/05/18 01:08:09;;;;;;;7.53;3.20;;;;;;;5.20;100.00;101834.97;687346;28;1235;-58
2023/05/18 01:08:31;;;;;;;6.55;2.95;;;;;;;5.20;100.00;101829.78;687444;28;870;-57
2023/05/18 01:08:53;;;;;;;7.75;3.05;;;;;;;5.19;100.00;101831.50;685831;28;1680;-58
2023/05/18 01:09:15;;;;;;;7.75;3.00;;;;;;;5.19;100.00;101828.00;687416;28;1663;-57
2023/05/18 01:09:35;;;;;;;6.97;3.40;;;;;;;5.19;100.00;101834.09;687687;28;1378;-58
2023/05/18 01:09:56;;;;;;;7.68;3.10;;;;;;;5.19;100.00;101831.50;682592;28;4533;-57
2023/05/18 01:10:19;;;;;;;8.27;3.00;;;;;;;5.18;100.00;101831.41;684117;28;1358;-57
2023/05/18 01:10:41;;;;;;;7.68;3.10;;;;;;;5.15;100.00;101828.72;681734;28;2282;-58
2023/05/18 01:11:23;;;;;;;8.23;3.00;;;;;;;5.19;100.00;101830.59;682599;28;1576;-57
2023/05/18 01:12:19;;;;;;;6.57;3.13;;;;;;;5.17;100.00;101830.56;684357;28;914;-58
2023/05/18 01:13:05;;;;;;;7.43;3.00;;;;;;;5.16;100.00;101830.50;680583;28;4491;-57
2023/05/18 01:13:38;;;;;;;7.38;3.00;;;;;;;5.12;100.00;101829.50;671869;29;1576;-57
2023/05/18 01:14:50;;;;;;;7.63;2.92;;;;;;;5.10;100.00;101826.84;677527;29;1586;-57
2023/05/18 01:15:21;;;;;;;7.15;3.30;;;;;;;5.19;100.00;101834.09;674298;29;1384;-57
2023/05/18 01:15:45;;;;;;;5.40;2.90;;;;;;;5.24;100.00;101827.34;675977;29;4423;-57
2023/05/18 01:16:11;;;;;;;7.97;3.03;;;;;;;5.22;100.00;101825.53;684645;28;1404;-58
2023/05/18 01:16:40;;;;;;;8.13;3.13;;;;;;;5.23;100.00;101827.28;686824;28;921;-57
2023/05/18 01:17:20;;;;;;;7.75;2.97;;;;;;;5.23;100.00;101822.09;686124;28;1587;-57
2023/05/18 01:17:50;;;;;;;7.25;3.00;;;;;;;5.25;100.00;101825.66;686976;28;933;-58
2023/05/18 01:18:20;;;;;;;7.35;3.45;;;;;;;5.24;100.00;101824.75;689675;28;818;-58
2023/05/18 01:18:53;;;;;;;6.70;3.08;;;;;;;5.20;100.00;101822.00;689826;28;4457;-57
2023/05/18 01:19:41;;;;;;;6.88;3.35;;;;;;;5.16;100.00;101825.31;687712;28;905;-57
2023/05/18 01:20:21;;;;;;;6.45;2.90;;;;;;;5.13;100.00;101827.81;685846;28;2036;-57
2023/05/18 01:20:44;;;;;;;7.10;3.22;;;;;;;5.15;100.00;101826.13;686719;28;1068;-57
2023/05/18 01:21:32;;;;;;;6.90;3.00;;;;;;;5.15;100.00;101829.63;688582;28;1418;-57
2023/05/18 01:22:12;;;;;;;7.75;3.35;;;;;;;5.15;100.00;101821.84;685820;28;4496;-58
2023/05/18 01:22:50;;;;;;;7.50;3.05;;;;;;;5.19;100.00;101825.41;686755;28;2169;-58
2023/05/18 01:23:44;;;;;;;7.18;3.22;;;;;;;5.19;100.00;101830.59;685935;28;1242;-57
2023/05/18 01:24:20;;;;;;;6.65;3.13;;;;;;;5.17;100.00;101824.50;686249;28;2243;-57
2023/05/18 01:24:56;;;;;;;8.18;3.25;;;;;;;5.16;100.00;101821.00;685888;28;4612;-57
2023/05/18 01:25:35;;;;;;;7.15;3.25;;;;;;;5.18;100.00;101824.56;688499;28;1263;-57
2023/05/18 01:25:55;;;;;;;6.47;3.05;;;;;;;5.16;100.00;101827.91;687577;28;1411;-56
2023/05/18 01:26:28;;;;;;;7.40;3.17;;;;;;;5.18;100.00;101826.22;687444;28;1146;-57
2023/05/18 01:26:56;;;;;;;8.07;3.17;;;;;;;5.15;100.00;101826.13;685943;28;1626;-57
2023/05/18 01:27:16;;;;;;;7.30;3.12;;;;;;;5.16;100.00;101818.41;686561;28;2173;-57
2023/05/18 01:27:41;;;;;;;9.60;3.05;;;;;;;5.20;100.00;101824.59;686694;28;4502;-56
2023/05/18 01:28:06;;;;;;;7.45;2.83;;;;;;;5.19;100.00;101823.72;686789;28;1549;-57
2023/05/18 01:28:31;;;;;;;7.10;2.70;;;;;;;5.19;100.00;101831.50;684375;28;1383;-57
2023/05/18 01:28:53;;;;;;;8.13;2.95;;;;;;;5.16;100.00;101818.41;684590;28;1560;-57
2023/05/18 01:29:19;;;;;;;7.15;3.00;;;;;;;5.15;100.00;101819.25;680712;29;1452;-57
2023/05/18 01:29:40;;;;;;;6.65;3.03;;;;;;;5.18;100.00;101818.47;680518;29;1390;-57
2023/05/18 01:30:02;;;;;;;8.60;3.03;;;;;;;5.17;100.00;101821.91;682063;28;1426;-58
2023/05/18 01:30:23;;;;;;;7.32;3.10;;;;;;;5.17;100.00;101825.38;686691;28;1932;-57
2023/05/18 01:30:43;;;;;;;7.80;3.28;;;;;;;5.16;100.00;101826.19;686397;28;4494;-57
2023/05/18 01:31:04;;;;;;;7.97;3.03;;;;;;;5.15;100.00;101824.44;687047;28;1521;-57
2023/05/18 01:31:27;;;;;;;7.88;3.00;;;;;;;5.15;100.00;101823.53;692306;28;1447;-57
2023/05/18 01:31:48;;;;;;;6.72;2.92;;;;;;;5.16;100.00;101821.00;687606;28;1580;-57
2023/05/18 01:32:08;;;;;;;6.93;3.23;;;;;;;5.19;100.00;101825.41;684078;28;801;-57
2023/05/18 01:32:28;;;;;;;8.60;3.57;;;;;;;5.16;100.00;101823.59;683304;28;986;-57
2023/05/18 01:32:51;;;;;;;7.25;3.42;;;;;;;5.13;100.00;101828.69;684352;28;1569;-58
2023/05/18 01:33:12;;;;;;;8.40;3.47;;;;;;;5.15;100.00;101826.13;685979;28;931;-58
2023/05/18 01:33:32;;;;;;;6.72;3.05;;;;;;;5.16;100.00;101826.19;684925;28;883;-58
2023/05/18 01:33:53;;;;;;;5.73;3.00;;;;;;;5.17;100.00;101824.50;683615;28;4371;-57
2023/05/18 01:34:14;;;;;;;7.10;3.08;;;;;;;5.15;100.00;101820.94;685718;28;1265;-57
2023/05/18 01:34:34;;;;;;;6.57;3.22;;;;;;;5.15;100.00;101819.25;684466;28;1239;-57
2023/05/18 01:34:55;;;;;;;6.93;3.17;;;;;;;5.16;100.00;101823.59;679231;28;2248;-57
2023/05/18 01:35:15;;;;;;;6.10;2.92;;;;;;;5.20;100.00;101820.28;681053;29;849;-58
2023/05/18 01:35:37;;;;;;;7.57;3.20;;;;;;;5.24;100.00;101823.88;681488;29;1548;-57
2023/05/18 01:35:57;;;;;;;8.75;3.10;;;;;;;5.29;100.00;101822.34;677815;29;1445;-57
2023/05/18 01:36:18;;;;;;;7.90;3.08;;;;;;;5.26;100.00;101825.72;678199;29;1380;-58
2023/05/18 01:36:39;;;;;;;7.07;2.97;;;;;;;5.26;100.00;101827.41;682247;28;4719;-57
2023/05/18 01:37:00;;;;;;;8.77;3.23;;;;;;;5.26;100.00;101827.41;683062;28;1447;-57
2023/05/18 01:37:20;;;;;;;8.33;3.37;;;;;;;5.27;100.00;101829.16;684641;28;1213;-57
2023/05/18 01:37:43;;;;;;;5.47;2.95;;;;;;;5.29;100.00;101824.94;684617;28;1282;-57
2023/05/18 01:38:05;;;;;;;7.78;2.90;;;;;;;5.27;100.00;101823.97;682533;28;1576;-57
2023/05/18 01:38:27;;;;;;;8.80;3.00;;;;;;;5.25;100.00;101825.66;684387;28;881;-57
2023/05/18 01:38:47;;;;;;;9.05;3.28;;;;;;;5.22;100.00;101826.44;683414;28;5371;-58
2023/05/18 01:39:09;;;;;;;7.18;3.30;;;;;;;5.22;100.00;101833.28;684196;28;1168;-57
2023/05/18 01:39:30;;;;;;;6.30;3.15;;;;;;;5.22;100.00;101829.00;681550;28;1240;-57
2023/05/18 01:39:51;;;;;;;7.70;3.20;;;;;;;5.20;100.00;101828.06;682279;28;4452;-57
2023/05/18 01:40:11;;;;;;;6.43;3.10;;;;;;;5.21;100.00;101826.38;684320;28;908;-58
2023/05/18 01:40:36;;;;;;;7.40;3.10;;;;;;;5.22;100.00;101830.72;681088;29;861;-57
2023/05/18 01:41:13;;;;;;;8.75;3.25;;;;;;;5.20;100.00;101825.47;680641;28;1604;-57
2023/05/18 01:41:40;;;;;;;8.00;3.03;;;;;;;5.19;100.00;101826.31;684190;28;825;-57
2023/05/18 01:42:07;;;;;;;9.02;3.40;;;;;;;5.16;100.00;101833.09;682519;28;1482;-57
2023/05/18 01:42:29;;;;;;;11.30;3.40;;;;;;;5.16;100.00;101833.09;683251;28;1476;-57
2023/05/18 01:42:58;;;;;;;7.40;3.38;;;;;;;5.15;100.00;101832.22;682820;28;4294;-57
2023/05/18 01:43:22;;;;;;;6.30;2.90;;;;;;;5.14;100.00;101830.44;682700;28;1252;-57
2023/05/18 01:44:05;;;;;;;7.00;3.20;;;;;;;5.17;100.00;101827.09;682625;28;846;-57
2023/05/18 01:44:29;;;;;;;9.35;3.20;;;;;;;5.18;100.00;101828.81;688894;28;1012;-57
2023/05/18 01:44:54;;;;;;;8.65;3.30;;;;;;;5.17;100.00;101829.69;685549;28;1518;-58
2023/05/18 01:45:20;;;;;;;5.85;3.05;;;;;;;5.17;100.00;101821.91;684154;28;932;-58
2023/05/18 01:45:45;;;;;;;5.82;2.80;;;;;;;5.16;100.00;101828.78;683561;28;4541;-57
2023/05/18 01:46:40;;;;;;;8.07;3.20;;;;;;;5.19;100.00;101823.72;679872;28;1501;-57
2023/05/18 01:47:11;;;;;;;6.72;3.30;;;;;;;5.19;100.00;101826.31;679875;28;1613;-58
2023/05/18 01:47:33;;;;;;;7.25;3.05;;;;;;;5.19;100.00;101831.50;687051;28;2168;-58
2023/05/18 01:47:57;;;;;;;6.20;3.05;;;;;;;5.18;100.00;101829.72;684612;28;1691;-57
2023/05/18 01:48:22;;;;;;;6.60;3.20;;;;;;;5.14;100.00;101821.78;684686;28;929;-57
2023/05/18 01:48:50;;;;;;;6.82;3.00;;;;;;;5.10;100.00;101829.44;687569;28;4391;-57
2023/05/18 01:49:36;;;;;;;8.75;3.10;;;;;;;5.10;100.00;101826.84;687413;28;991;-57
2023/05/18 01:50:09;;;;;;;7.13;3.00;;;;;;;5.09;100.00;101831.97;684849;28;1533;-57
2023/05/18 01:50:36;;;;;;;7.68;3.25;;;;;;;5.11;100.00;101825.16;687163;28;1036;-57
2023/05/18 01:50:58;;;;;;;7.53;3.20;;;;;;;5.13;100.00;101825.22;685861;28;1522;-57
2023/05/18 01:51:20;;;;;;;7.38;2.97;;;;;;;5.14;100.00;101826.94;690239;28;989;-57
2023/05/18 01:51:45;;;;;;;7.15;3.10;;;;;;;5.13;100.00;101830.41;686231;28;4433;-57